Terminal Aerodrome Forecast
Issued by NWS Charleston, WV

Home | Current Version | Previous Version | Text Only | Print | Product List | Glossary On
Versions: 1 2 3 4 5 6 7 8 9 10 11 12 13 14 15 16 17 18 19 20 21 22
000
FTUS41 KRLX 020357 AAB
TAFBKW
TAF AMD
KBKW 020357Z 0204/0224 21005KT P6SM BKN006 OVC050
     FM020600 20006KT 3SM BR BKN005
     FM021200 23006KT 5SM BR BKN008
     FM021400 24008KT P6SM BKN010
     FM021700 25010G16KT P6SM VCTS BKN035CB
     FM022200 29006KT P6SM SHRA VCTS OVC035CB=

USA.gov is the U.S. government's official web portal to all federal, state and local government web resources and services.